createdAt,value
2022-09-02T00:00:20.591Z,48.75
2022-09-02T00:02:48.892Z,48.65
2022-09-02T00:05:15.304Z,48.44
2022-09-02T00:07:41.689Z,48.62
2022-09-02T00:10:08.154Z,48.85
2022-09-02T00:12:34.525Z,48.72
2022-09-02T00:15:01.234Z,48.78
2022-09-02T00:17:28.078Z,48.70
2022-09-02T00:19:56.199Z,48.53
2022-09-02T00:22:23.849Z,48.37
2022-09-02T00:24:50.522Z,48.41
2022-09-02T00:27:17.315Z,48.62
2022-09-02T00:29:44.270Z,48.39
2022-09-02T00:32:10.709Z,48.57
2022-09-02T00:34:37.105Z,48.48
2022-09-02T00:37:03.475Z,48.35
2022-09-02T00:39:29.863Z,48.86
2022-09-02T00:41:56.854Z,48.64
2022-09-02T00:44:23.218Z,48.47
2022-09-02T00:46:49.588Z,48.74
2022-09-02T00:49:24.213Z,48.49
2022-09-02T00:52:09.885Z,48.31
2022-09-02T00:54:37.638Z,48.43
2022-09-02T00:57:04.146Z,48.69
2022-09-02T00:59:35.666Z,48.54
2022-09-02T01:02:02.266Z,48.56
2022-09-02T01:04:29.261Z,48.34
2022-09-02T01:06:56.054Z,48.21
2022-09-02T01:09:23.231Z,48.51
2022-09-02T01:11:52.182Z,48.18
2022-09-02T01:14:18.539Z,47.96
2022-09-02T01:16:46.186Z,48.32
2022-09-02T01:19:23.851Z,47.77
2022-09-02T01:21:51.242Z,48.09
2022-09-02T01:24:17.614Z,48.31
2022-09-02T01:26:44.040Z,48.21
2022-09-02T01:29:10.409Z,47.95
2022-09-02T01:31:36.871Z,48.01
2022-09-02T01:34:03.720Z,48.20
2022-09-02T01:36:30.196Z,48.45
2022-09-02T01:38:57.067Z,47.85
2022-09-02T01:41:23.686Z,48.00
2022-09-02T01:43:50.073Z,47.71
2022-09-02T01:46:16.542Z,47.97
2022-09-02T01:48:43.193Z,48.03
2022-09-02T01:51:09.585Z,47.93
2022-09-02T01:53:36.682Z,48.02
2022-09-02T01:56:05.006Z,48.15
2022-09-02T01:58:33.516Z,47.99
2022-09-02T02:00:59.958Z,47.78
2022-09-02T02:03:26.407Z,47.86
2022-09-02T02:05:56.959Z,47.97
2022-09-02T02:08:24.241Z,48.08
2022-09-02T02:10:50.914Z,48.23
2022-09-02T02:13:17.831Z,47.71
2022-09-02T02:15:44.343Z,48.21
2022-09-02T02:18:10.921Z,47.83
2022-09-02T02:20:37.292Z,47.82
2022-09-02T02:23:04.887Z,47.78
2022-09-02T02:25:31.416Z,48.14
2022-09-02T02:27:57.825Z,48.31
2022-09-02T02:30:24.237Z,48.06
2022-09-02T02:32:51.115Z,47.93
2022-09-02T02:35:19.269Z,47.83
2022-09-02T02:37:49.032Z,47.99
2022-09-02T02:40:15.876Z,48.35
2022-09-02T02:42:42.362Z,48.32
2022-09-02T02:45:09.440Z,48.23
2022-09-02T02:47:41.854Z,48.32
2022-09-02T02:50:11.697Z,48.07
2022-09-02T02:52:41.114Z,48.06
2022-09-02T02:55:08.173Z,48.02
2022-09-02T02:57:34.746Z,48.02
2022-09-02T03:00:07.644Z,48.29
2022-09-02T03:02:34.345Z,48.26
2022-09-02T03:05:01.591Z,48.35
2022-09-02T03:07:28.794Z,48.09
2022-09-02T03:09:55.222Z,48.07
2022-09-02T03:12:21.613Z,47.99
2022-09-02T03:14:49.122Z,48.05
2022-09-02T03:17:16.458Z,48.04
2022-09-02T03:19:43.018Z,48.14
2022-09-02T03:22:10.915Z,48.19
2022-09-02T03:24:37.551Z,48.00
2022-09-02T03:27:04.304Z,48.13
2022-09-02T03:29:30.697Z,48.20
2022-09-02T03:31:57.778Z,48.29
2022-09-02T03:34:24.647Z,48.06
2022-09-02T03:36:51.062Z,48.38
2022-09-02T03:39:17.457Z,48.37
2022-09-02T03:41:49.602Z,47.99
2022-09-02T03:44:16.463Z,48.29
2022-09-02T03:46:44.183Z,48.33
2022-09-02T03:49:11.277Z,48.26
2022-09-02T03:51:39.581Z,47.96
2022-09-02T03:54:07.731Z,48.29
2022-09-02T03:56:34.418Z,48.00
2022-09-02T03:59:01.670Z,48.31
2022-09-02T04:01:35.156Z,46.69
2022-09-02T04:04:04.003Z,47.16
2022-09-02T04:06:32.564Z,47.75
2022-09-02T04:09:00.573Z,47.40
2022-09-02T04:11:27.003Z,47.69
2022-09-02T04:13:54.006Z,47.74
2022-09-02T04:16:28.618Z,47.47
2022-09-02T04:18:58.594Z,47.44
2022-09-02T04:21:25.452Z,47.38
2022-09-02T04:23:52.543Z,47.44
2022-09-02T04:26:20.251Z,47.32
2022-09-02T04:28:50.291Z,47.45
2022-09-02T04:31:18.055Z,47.68
2022-09-02T04:33:44.754Z,47.63
2022-09-02T04:36:14.959Z,47.93
2022-09-02T04:38:42.610Z,47.76
2022-09-02T04:41:13.165Z,47.60
2022-09-02T04:43:39.807Z,48.00
2022-09-02T04:46:10.538Z,47.75
2022-09-02T04:48:38.233Z,48.23
2022-09-02T04:51:05.799Z,48.22
2022-09-02T04:53:32.938Z,48.57
2022-09-02T04:56:05.929Z,47.99
2022-09-02T04:58:32.969Z,47.87
2022-09-02T05:00:59.996Z,47.96
2022-09-02T05:03:26.990Z,48.00
2022-09-02T05:06:01.071Z,48.02
2022-09-02T05:08:28.258Z,48.31
2022-09-02T05:10:54.945Z,48.04
2022-09-02T05:13:21.329Z,48.56
2022-09-02T05:15:47.818Z,48.26
2022-09-02T05:18:15.109Z,48.46
2022-09-02T05:20:43.659Z,48.39
2022-09-02T05:23:11.435Z,48.63
2022-09-02T05:25:40.097Z,48.72
2022-09-02T05:28:08.866Z,49.29
2022-09-02T05:30:36.569Z,49.08
2022-09-02T05:33:03.509Z,49.25
2022-09-02T05:35:31.646Z,49.45
2022-09-02T05:38:01.326Z,49.51
2022-09-02T05:40:28.853Z,49.50
2022-09-02T05:42:56.069Z,49.30
2022-09-02T05:45:24.000Z,49.55
2022-09-02T05:47:50.525Z,49.52
2022-09-02T05:50:17.150Z,49.74
2022-09-02T05:52:45.108Z,50.01
2022-09-02T05:55:11.613Z,49.06
2022-09-02T05:57:39.392Z,49.53
2022-09-02T06:00:08.417Z,49.85
2022-09-02T06:02:40.965Z,49.97
2022-09-02T06:05:12.014Z,49.65
2022-09-02T06:07:41.960Z,49.43
2022-09-02T06:10:08.574Z,50.60
2022-09-02T06:12:39.351Z,50.19
2022-09-02T06:15:08.453Z,50.02
2022-09-02T06:17:37.350Z,50.04
2022-09-02T06:20:04.195Z,50.16
2022-09-02T06:22:32.678Z,50.39
2022-09-02T06:24:59.527Z,50.24
2022-09-02T06:27:26.831Z,51.99
2022-09-02T06:29:54.190Z,53.28
2022-09-02T06:32:23.416Z,53.21
2022-09-02T06:34:54.923Z,52.94
2022-09-02T06:37:22.245Z,52.98
2022-09-02T06:39:50.275Z,52.81
2022-09-02T06:42:22.125Z,52.56
2022-09-02T06:45:24.329Z,51.90
2022-09-02T06:47:51.746Z,51.66
2022-09-02T06:50:18.465Z,51.01
2022-09-02T06:53:15.434Z,51.08
2022-09-02T06:55:43.573Z,51.19
2022-09-02T06:58:10.538Z,51.09
2022-09-02T07:00:38.409Z,50.99
2022-09-02T07:03:23.326Z,50.87
2022-09-02T07:06:02.629Z,50.90
2022-09-02T07:08:29.485Z,50.81
2022-09-02T07:10:56.832Z,50.98
2022-09-02T07:13:23.378Z,51.02
2022-09-02T07:15:49.928Z,50.76
2022-09-02T07:18:16.591Z,50.87
2022-09-02T07:20:44.863Z,50.90
2022-09-02T07:23:11.318Z,50.66
2022-09-02T07:25:44.029Z,50.75
2022-09-02T07:28:11.998Z,52.09
2022-09-02T07:30:42.797Z,52.26
2022-09-02T07:33:14.388Z,53.15
2022-09-02T07:35:42.658Z,52.68
2022-09-02T07:38:10.125Z,52.62
2022-09-02T07:40:37.645Z,52.83
2022-09-02T07:43:05.254Z,52.98
2022-09-02T07:45:34.015Z,51.54
2022-09-02T07:48:01.217Z,50.89
2022-09-02T07:50:28.981Z,51.57
2022-09-02T07:52:57.577Z,51.11
2022-09-02T07:55:25.439Z,50.40
2022-09-02T07:57:52.434Z,50.60
2022-09-02T08:00:20.110Z,50.66
2022-09-02T08:02:49.301Z,50.79
2022-09-02T08:05:21.209Z,51.19
2022-09-02T08:07:47.587Z,50.70
2022-09-02T08:10:14.621Z,50.63
2022-09-02T08:12:41.077Z,50.05
2022-09-02T08:15:07.554Z,50.07
2022-09-02T08:17:34.245Z,50.55
2022-09-02T08:20:01.045Z,50.51
2022-09-02T08:22:35.486Z,50.74
2022-09-02T08:25:02.205Z,51.14
2022-09-02T08:27:28.577Z,51.67
2022-09-02T08:29:54.946Z,52.40
2022-09-02T08:32:21.315Z,54.76
2022-09-02T08:34:48.093Z,54.91
2022-09-02T08:37:14.473Z,59.23
2022-09-02T08:39:40.849Z,55.87
2022-09-02T08:42:15.596Z,53.90
2022-09-02T08:44:42.037Z,53.99
2022-09-02T08:47:10.515Z,53.99
2022-09-02T08:49:41.383Z,52.16
2022-09-02T08:52:07.771Z,52.27
2022-09-02T08:54:39.797Z,51.64
2022-09-02T08:57:06.191Z,51.56
2022-09-02T08:59:32.629Z,51.51
2022-09-02T09:02:06.897Z,51.58
2022-09-02T09:04:51.174Z,51.37
2022-09-02T09:07:17.474Z,51.32
2022-09-02T09:09:43.755Z,51.40
2022-09-02T09:12:12.332Z,51.27
2022-09-02T09:14:42.339Z,51.40
2022-09-02T09:17:10.353Z,51.23
2022-09-02T09:19:42.843Z,51.55
2022-09-02T09:22:11.008Z,51.47
2022-09-02T09:24:38.489Z,51.56
2022-09-02T09:27:06.120Z,51.53
2022-09-02T09:29:33.127Z,51.38
2022-09-02T09:32:00.040Z,50.92
2022-09-02T09:34:45.929Z,50.81
2022-09-02T09:37:13.112Z,50.83
2022-09-02T09:39:39.745Z,50.55
2022-09-02T09:42:12.248Z,50.90
2022-09-02T09:44:45.878Z,50.95
2022-09-02T09:47:22.858Z,50.90
2022-09-02T09:49:50.093Z,51.15
2022-09-02T09:52:26.093Z,51.32
2022-09-02T09:55:07.800Z,51.10
2022-09-02T09:57:35.680Z,50.91
2022-09-02T10:00:10.159Z,50.73
2022-09-02T10:02:45.247Z,50.54
2022-09-02T10:05:17.134Z,50.23
2022-09-02T10:07:45.191Z,49.88
2022-09-02T10:10:15.006Z,49.47
2022-09-02T10:12:41.363Z,49.63
2022-09-02T10:15:08.305Z,49.52
2022-09-02T10:17:40.206Z,49.43
2022-09-02T10:20:25.342Z,49.39
2022-09-02T10:23:04.771Z,49.13
2022-09-02T10:25:39.807Z,49.47
2022-09-02T10:28:24.989Z,49.12
2022-09-02T10:30:55.623Z,49.43
2022-09-02T10:33:24.998Z,49.45
2022-09-02T10:35:55.070Z,49.28
2022-09-02T10:38:30.438Z,49.29
2022-09-02T10:40:56.766Z,49.38
2022-09-02T10:43:42.522Z,49.15
2022-09-02T10:46:09.378Z,49.43
2022-09-02T10:48:53.278Z,49.22
2022-09-02T10:51:27.560Z,49.16
2022-09-02T10:53:59.586Z,49.04
2022-09-02T10:56:27.344Z,48.93
2022-09-02T10:58:54.996Z,49.05
2022-09-02T11:01:25.955Z,49.01
2022-09-02T11:04:00.751Z,48.93
2022-09-02T11:06:35.382Z,48.90
2022-09-02T11:12:00.507Z,48.74
2022-09-02T11:14:37.599Z,48.63
2022-09-02T11:17:03.938Z,48.55
2022-09-02T11:19:33.022Z,48.33
2022-09-02T11:22:18.094Z,48.58
2022-09-02T11:24:52.213Z,48.67
2022-09-02T11:27:42.131Z,48.73
2022-09-02T11:30:16.634Z,48.41
2022-09-02T11:32:51.958Z,48.12
2022-09-02T11:35:19.851Z,48.46
2022-09-02T11:37:47.517Z,48.50
2022-09-02T11:43:50.467Z,47.75
2022-09-02T11:46:36.728Z,47.33
2022-09-02T11:49:21.507Z,47.01
2022-09-02T11:52:06.362Z,47.01
2022-09-02T11:54:35.091Z,46.80
2022-09-02T11:57:02.056Z,46.56
2022-09-02T11:59:47.130Z,46.35
2022-09-02T12:02:13.877Z,46.24
2022-09-02T12:04:59.206Z,46.22
2022-09-02T12:07:29.719Z,45.93
2022-09-02T12:10:02.288Z,45.72
2022-09-02T12:12:38.294Z,46.07
2022-09-02T12:15:05.393Z,46.04
2022-09-02T12:17:44.178Z,45.80
2022-09-02T12:20:11.355Z,45.71
2022-09-02T12:22:38.941Z,45.78
2022-09-02T12:25:06.654Z,45.59
2022-09-02T12:27:39.850Z,45.78
2022-09-02T12:30:11.130Z,46.06
2022-09-02T12:32:46.278Z,45.90
2022-09-02T12:35:32.613Z,45.67
2022-09-02T12:38:11.481Z,45.67
2022-09-02T12:40:39.668Z,45.68
2022-09-02T12:43:14.193Z,45.54
2022-09-02T12:45:41.105Z,45.35
2022-09-02T12:48:17.456Z,45.28
2022-09-02T12:50:43.848Z,45.45
2022-09-02T12:53:29.868Z,45.47
2022-09-02T12:55:58.462Z,45.34
2022-09-02T12:58:24.975Z,44.76
2022-09-02T13:01:03.455Z,44.29
2022-09-02T13:03:29.765Z,44.48
2022-09-02T13:05:58.854Z,44.51
2022-09-02T13:08:36.531Z,44.72
2022-09-02T13:11:14.958Z,44.66
2022-09-02T13:13:48.859Z,44.45
2022-09-02T13:16:38.118Z,44.00
2022-09-02T13:19:23.053Z,44.24
2022-09-02T13:22:08.312Z,44.05
2022-09-02T13:24:41.588Z,44.24
2022-09-02T13:27:32.290Z,44.56
2022-09-02T13:30:05.894Z,44.75
2022-09-02T13:32:32.597Z,44.81
2022-09-02T13:35:02.647Z,45.18
2022-09-02T13:37:41.645Z,45.03
2022-09-02T13:40:18.497Z,45.25
2022-09-02T13:42:51.729Z,45.20
2022-09-02T13:45:18.985Z,45.17
2022-09-02T13:47:46.070Z,45.34
2022-09-02T13:50:13.396Z,45.38
2022-09-02T13:53:34.582Z,45.37
2022-09-02T13:55:26.601Z,45.39
2022-09-02T13:58:00.568Z,45.38
2022-09-02T14:00:47.173Z,45.39
2022-09-02T14:03:14.999Z,45.53
2022-09-02T14:05:46.882Z,45.32
2022-09-02T14:08:14.549Z,45.66
2022-09-02T14:10:42.374Z,45.78
2022-09-02T14:13:08.743Z,45.60
2022-09-02T14:15:35.235Z,45.97
2022-09-02T14:18:18.217Z,45.90
2022-09-02T14:21:03.795Z,46.23
2022-09-02T14:23:31.251Z,46.37
2022-09-02T14:25:58.025Z,45.90
2022-09-02T14:28:25.046Z,45.74
2022-09-02T14:30:58.564Z,45.96
2022-09-02T14:33:41.433Z,45.78
2022-09-02T14:36:17.864Z,45.41
2022-09-02T14:38:47.012Z,45.73
2022-09-02T14:41:18.681Z,44.30
2022-09-02T14:43:46.013Z,45.51
2022-09-02T14:46:14.874Z,45.10
2022-09-02T14:48:41.301Z,45.44
2022-09-02T14:51:07.731Z,46.23
2022-09-02T14:53:34.249Z,44.31
2022-09-02T14:56:00.611Z,45.49
2022-09-02T14:58:27.638Z,44.89
2022-09-02T15:01:00.566Z,46.05
2022-09-02T15:03:27.229Z,45.10
2022-09-02T15:05:53.844Z,44.74
2022-09-02T15:08:20.281Z,44.83
2022-09-02T15:10:46.779Z,45.13
2022-09-02T15:13:13.527Z,44.69
2022-09-02T15:15:39.994Z,44.55
2022-09-02T15:18:06.400Z,45.01
2022-09-02T15:20:35.430Z,45.22
2022-09-02T15:23:01.846Z,45.41
2022-09-02T15:25:28.514Z,44.74
2022-09-02T15:27:54.880Z,45.23
2022-09-02T15:30:21.251Z,44.64
2022-09-02T15:32:48.131Z,44.06
2022-09-02T15:35:14.494Z,44.09
2022-09-02T15:37:40.871Z,44.27
2022-09-02T15:40:07.969Z,43.98
2022-09-02T15:42:35.203Z,43.67
2022-09-02T15:45:02.638Z,43.87
2022-09-02T15:47:30.485Z,43.71
2022-09-02T15:49:57.679Z,43.83
2022-09-02T15:52:24.046Z,43.60
2022-09-02T15:54:50.422Z,44.16
2022-09-02T15:57:16.785Z,43.85
2022-09-02T15:59:43.142Z,43.91
2022-09-02T16:02:09.559Z,43.84
2022-09-02T16:04:35.946Z,44.10
2022-09-02T16:07:02.894Z,44.48
2022-09-02T16:09:29.253Z,44.00
2022-09-02T16:11:58.296Z,41.87
2022-09-02T16:14:24.640Z,40.11
2022-09-02T16:16:51.220Z,41.99
2022-09-02T16:19:21.348Z,39.46
2022-09-02T16:21:48.065Z,39.86
2022-09-02T16:24:14.503Z,40.35
2022-09-02T16:26:41.207Z,41.32
2022-09-02T16:29:08.577Z,41.51
2022-09-02T16:31:35.737Z,41.69
2022-09-02T16:34:03.123Z,41.54
2022-09-02T16:36:33.255Z,41.70
2022-09-02T16:39:00.995Z,42.00
2022-09-02T16:41:30.314Z,42.46
2022-09-02T16:43:57.391Z,42.53
2022-09-02T16:46:23.965Z,42.38
2022-09-02T16:48:50.382Z,42.56
2022-09-02T16:51:16.754Z,42.83
2022-09-02T16:53:43.799Z,42.88
2022-09-02T16:56:17.105Z,42.89
2022-09-02T16:58:43.480Z,42.94
2022-09-02T17:01:12.197Z,43.05
2022-09-02T17:03:39.058Z,43.43
2022-09-02T17:06:05.497Z,43.32
2022-09-02T17:08:31.863Z,43.67
2022-09-02T17:11:17.047Z,43.48
2022-09-02T17:13:43.411Z,43.74
2022-09-02T17:16:09.837Z,43.65
2022-09-02T17:18:36.287Z,43.94
2022-09-02T17:21:12.741Z,43.91
2022-09-02T17:23:39.735Z,44.34
2022-09-02T17:26:06.091Z,44.05
2022-09-02T17:28:32.464Z,44.30
2022-09-02T17:30:59.028Z,44.54
2022-09-02T17:33:25.442Z,44.34
2022-09-02T17:35:57.903Z,44.53
2022-09-02T17:38:27.190Z,43.78
2022-09-02T17:41:12.397Z,44.05
2022-09-02T17:43:38.779Z,44.67
2022-09-02T17:46:08.520Z,44.47
2022-09-02T17:48:45.123Z,44.64
2022-09-02T17:51:21.498Z,44.68
2022-09-02T17:53:48.565Z,44.95
2022-09-02T17:56:19.958Z,44.80
2022-09-02T17:58:55.008Z,45.10
2022-09-02T18:01:21.861Z,44.99
2022-09-02T18:03:59.090Z,43.63
2022-09-02T18:06:28.186Z,43.69
2022-09-02T18:09:02.198Z,43.87
2022-09-02T18:11:29.109Z,44.17
2022-09-02T18:14:07.521Z,45.00
2022-09-02T18:16:36.911Z,45.82
2022-09-02T18:19:21.999Z,44.95
2022-09-02T18:21:54.210Z,44.80
2022-09-02T18:24:25.351Z,45.30
2022-09-02T18:27:14.696Z,44.82
2022-09-02T18:29:50.076Z,44.85
2022-09-02T18:32:20.634Z,45.34
2022-09-02T18:35:05.679Z,45.81
2022-09-02T18:37:54.845Z,45.87
2022-09-02T18:40:25.820Z,46.32
2022-09-02T18:43:07.181Z,45.93
2022-09-02T18:45:52.741Z,46.46
2022-09-02T18:48:20.728Z,46.30
2022-09-02T18:50:51.317Z,46.62
2022-09-02T18:53:19.401Z,46.22
2022-09-02T18:55:45.806Z,46.33
2022-09-02T18:58:15.235Z,45.76
2022-09-02T19:00:44.322Z,46.12
2022-09-02T19:03:10.717Z,46.18
2022-09-02T19:05:37.084Z,46.35
2022-09-02T19:08:32.559Z,46.58
2022-09-02T19:11:06.705Z,46.85
2022-09-02T19:13:53.455Z,46.28
2022-09-02T19:16:20.591Z,46.32
2022-09-02T19:18:47.041Z,45.84
2022-09-02T19:21:16.260Z,46.22
2022-09-02T19:23:43.360Z,46.70
2022-09-02T19:26:09.713Z,47.11
2022-09-02T19:28:36.111Z,46.85
2022-09-02T19:31:02.484Z,47.08
2022-09-02T19:33:29.201Z,47.09
2022-09-02T19:35:56.995Z,47.10
2022-09-02T19:38:23.408Z,47.33
2022-09-02T19:40:49.829Z,47.22
2022-09-02T19:43:16.674Z,47.32
2022-09-02T19:45:43.106Z,47.34
2022-09-02T19:48:12.511Z,47.55
2022-09-02T19:50:40.926Z,47.52
2022-09-02T19:53:08.109Z,47.53
2022-09-02T19:55:35.806Z,47.50
2022-09-02T19:58:02.185Z,47.38
2022-09-02T20:00:28.545Z,47.49
2022-09-02T20:02:55.236Z,47.54
2022-09-02T20:05:24.340Z,47.59
2022-09-02T20:07:50.712Z,47.71
2022-09-02T20:10:20.510Z,47.64
2022-09-02T20:12:54.062Z,47.87
2022-09-02T20:15:20.525Z,47.80
2022-09-02T20:17:46.994Z,48.09
2022-09-02T20:20:17.396Z,47.74
2022-09-02T20:22:44.530Z,48.01
2022-09-02T20:25:10.907Z,48.00
2022-09-02T20:27:42.134Z,47.86
2022-09-02T20:30:12.740Z,47.90
2022-09-02T20:32:55.465Z,48.00
2022-09-02T20:35:40.834Z,47.91
2022-09-02T20:38:07.192Z,48.28
2022-09-02T20:40:45.891Z,48.18
2022-09-02T20:43:30.832Z,48.19
2022-09-02T20:45:58.119Z,48.10
2022-09-02T20:48:39.811Z,48.38
2022-09-02T20:51:09.804Z,48.26
2022-09-02T20:53:37.791Z,48.20
2022-09-02T20:56:05.167Z,48.22
2022-09-02T20:58:35.923Z,48.26
2022-09-02T21:01:04.456Z,48.35
2022-09-02T21:03:37.202Z,48.63
2022-09-02T21:06:03.579Z,48.63
2022-09-02T21:08:31.461Z,48.47
2022-09-02T21:10:59.305Z,48.31
2022-09-02T21:13:44.262Z,48.52
2022-09-02T21:16:21.348Z,48.33
2022-09-02T21:19:00.751Z,48.44
2022-09-02T21:21:27.038Z,48.63
2022-09-02T21:24:16.406Z,48.42
2022-09-02T21:26:43.402Z,48.73
2022-09-02T21:29:17.546Z,48.53
2022-09-02T21:31:48.803Z,48.74
2022-09-02T21:34:26.215Z,48.44
2022-09-02T21:36:53.325Z,48.44
2022-09-02T21:39:19.737Z,48.48
2022-09-02T21:42:05.291Z,48.64
2022-09-02T21:44:33.975Z,48.83
2022-09-02T21:47:03.820Z,48.85
2022-09-02T21:49:45.519Z,49.00
2022-09-02T21:52:30.188Z,49.00
2022-09-02T21:55:15.451Z,48.76
2022-09-02T21:57:46.778Z,48.65
2022-09-02T22:00:16.221Z,48.78
2022-09-02T22:03:04.073Z,48.79
2022-09-02T22:05:36.522Z,48.68
2022-09-02T22:08:14.226Z,49.11
2022-09-02T22:10:43.865Z,48.84
2022-09-02T22:13:10.215Z,49.12
2022-09-02T22:15:43.354Z,49.05
2022-09-02T22:18:28.569Z,48.92
2022-09-02T22:20:55.759Z,48.87
2022-09-02T22:23:23.512Z,48.95
2022-09-02T22:25:50.118Z,49.10
2022-09-02T22:28:20.333Z,49.20
2022-09-02T22:30:47.604Z,48.97
2022-09-02T22:33:14.524Z,49.55
2022-09-02T22:35:48.674Z,49.38
2022-09-02T22:38:26.325Z,49.32
2022-09-02T22:41:00.047Z,49.23
2022-09-02T22:43:41.689Z,49.53
2022-09-02T22:46:28.323Z,49.42
2022-09-02T22:49:14.836Z,49.29
2022-09-02T22:52:09.061Z,49.17
2022-09-02T22:54:35.467Z,49.25
2022-09-02T22:57:10.694Z,49.50
2022-09-02T22:59:40.127Z,49.29
2022-09-02T23:02:22.100Z,49.28
2022-09-02T23:04:54.927Z,49.52
2022-09-02T23:07:22.796Z,49.33
2022-09-02T23:09:53.022Z,49.58
2022-09-02T23:12:43.740Z,49.52
2022-09-02T23:15:14.466Z,49.38
2022-09-02T23:17:47.202Z,49.67
2022-09-02T23:20:16.879Z,49.73
2022-09-02T23:22:53.766Z,49.51
2022-09-02T23:25:23.067Z,49.65
2022-09-02T23:27:55.811Z,49.57
2022-09-02T23:30:22.211Z,49.46
2022-09-02T23:33:02.578Z,49.74
2022-09-02T23:35:33.189Z,49.74
2022-09-02T23:38:08.167Z,49.62
2022-09-02T23:40:41.547Z,49.87
2022-09-02T23:43:08.211Z,49.93
2022-09-02T23:45:34.588Z,49.65
2022-09-02T23:48:19.582Z,49.68
2022-09-02T23:51:05.458Z,49.62
2022-09-02T23:53:40.406Z,49.56
2022-09-02T23:56:17.877Z,49.85
2022-09-02T23:58:57.407Z,49.77
